sensor_id;sensor_type;location;lat;lon;timestamp;temperature;humidity
17148;DHT22;8689;47.364;8.796;2023-07-20T00:02:03;18.90;92.50
17148;DHT22;8689;47.364;8.796;2023-07-20T00:04:31;19.00;92.70
17148;DHT22;8689;47.364;8.796;2023-07-20T00:06:58;19.00;93.00
17148;DHT22;8689;47.364;8.796;2023-07-20T00:09:26;18.90;92.50
17148;DHT22;8689;47.364;8.796;2023-07-20T00:11:53;19.00;93.00
17148;DHT22;8689;47.364;8.796;2023-07-20T00:14:20;18.90;93.10
17148;DHT22;8689;47.364;8.796;2023-07-20T00:16:50;18.90;93.40
17148;DHT22;8689;47.364;8.796;2023-07-20T00:19:21;18.90;93.30
17148;DHT22;8689;47.364;8.796;2023-07-20T00:21:49;18.80;93.00
17148;DHT22;8689;47.364;8.796;2023-07-20T00:24:16;18.80;92.50
17148;DHT22;8689;47.364;8.796;2023-07-20T00:26:43;18.90;91.80
17148;DHT22;8689;47.364;8.796;2023-07-20T00:29:10;18.90;92.90
17148;DHT22;8689;47.364;8.796;2023-07-20T00:31:37;18.80;93.60
17148;DHT22;8689;47.364;8.796;2023-07-20T00:34:06;18.80;93.00
17148;DHT22;8689;47.364;8.796;2023-07-20T00:36:33;18.70;93.00
17148;DHT22;8689;47.364;8.796;2023-07-20T00:39:00;18.70;93.40
17148;DHT22;8689;47.364;8.796;2023-07-20T00:41:27;18.60;93.40
17148;DHT22;8689;47.364;8.796;2023-07-20T00:43:55;18.60;93.60
17148;DHT22;8689;47.364;8.796;2023-07-20T00:46:23;18.60;93.70
17148;DHT22;8689;47.364;8.796;2023-07-20T00:48:51;18.60;94.90
17148;DHT22;8689;47.364;8.796;2023-07-20T00:51:21;18.60;95.00
17148;DHT22;8689;47.364;8.796;2023-07-20T00:53:48;18.60;95.40
17148;DHT22;8689;47.364;8.796;2023-07-20T00:56:16;18.60;96.10
17148;DHT22;8689;47.364;8.796;2023-07-20T00:58:43;18.50;96.30
17148;DHT22;8689;47.364;8.796;2023-07-20T01:01:11;18.40;96.60
17148;DHT22;8689;47.364;8.796;2023-07-20T01:03:38;18.40;97.30
17148;DHT22;8689;47.364;8.796;2023-07-20T01:06:13;18.30;98.20
17148;DHT22;8689;47.364;8.796;2023-07-20T01:08:50;18.30;98.60
17148;DHT22;8689;47.364;8.796;2023-07-20T01:11:28;18.20;99.00
17148;DHT22;8689;47.364;8.796;2023-07-20T01:13:59;18.20;99.80
17148;DHT22;8689;47.364;8.796;2023-07-20T01:16:27;18.10;99.90
17148;DHT22;8689;47.364;8.796;2023-07-20T01:18:54;18.10;99.90
17148;DHT22;8689;47.364;8.796;2023-07-20T01:21:28;18.10;99.90
17148;DHT22;8689;47.364;8.796;2023-07-20T01:24:32;18.10;99.90
17148;DHT22;8689;47.364;8.796;2023-07-20T01:27:29;18.00;99.90
17148;DHT22;8689;47.364;8.796;2023-07-20T01:30:16;18.00;99.90
17148;DHT22;8689;47.364;8.796;2023-07-20T01:32:54;18.00;99.90
17148;DHT22;8689;47.364;8.796;2023-07-20T01:35:23;17.90;99.90
17148;DHT22;8689;47.364;8.796;2023-07-20T01:37:52;17.90;99.90
17148;DHT22;8689;47.364;8.796;2023-07-20T01:40:20;18.00;99.90
17148;DHT22;8689;47.364;8.796;2023-07-20T01:42:49;17.90;99.90
17148;DHT22;8689;47.364;8.796;2023-07-20T01:45:16;18.00;99.90
17148;DHT22;8689;47.364;8.796;2023-07-20T01:47:43;17.90;99.90
17148;DHT22;8689;47.364;8.796;2023-07-20T01:50:11;17.90;99.90
17148;DHT22;8689;47.364;8.796;2023-07-20T01:52:38;17.90;99.90
17148;DHT22;8689;47.364;8.796;2023-07-20T01:55:06;17.90;99.90
17148;DHT22;8689;47.364;8.796;2023-07-20T01:57:33;17.80;99.90
17148;DHT22;8689;47.364;8.796;2023-07-20T02:00:00;17.80;99.90
17148;DHT22;8689;47.364;8.796;2023-07-20T02:02:27;17.70;99.90
17148;DHT22;8689;47.364;8.796;2023-07-20T02:04:55;17.70;99.90
17148;DHT22;8689;47.364;8.796;2023-07-20T02:07:23;17.70;99.90
17148;DHT22;8689;47.364;8.796;2023-07-20T02:09:50;17.70;99.90
17148;DHT22;8689;47.364;8.796;2023-07-20T02:12:17;17.70;99.90
17148;DHT22;8689;47.364;8.796;2023-07-20T02:14:44;17.70;99.90
17148;DHT22;8689;47.364;8.796;2023-07-20T02:17:11;17.70;99.90
17148;DHT22;8689;47.364;8.796;2023-07-20T02:19:38;17.70;99.90
17148;DHT22;8689;47.364;8.796;2023-07-20T02:22:05;17.70;99.90
17148;DHT22;8689;47.364;8.796;2023-07-20T02:24:34;17.60;99.90
17148;DHT22;8689;47.364;8.796;2023-07-20T02:27:01;17.70;99.90
17148;DHT22;8689;47.364;8.796;2023-07-20T02:29:28;17.60;99.90
17148;DHT22;8689;47.364;8.796;2023-07-20T02:31:55;17.60;99.90
17148;DHT22;8689;47.364;8.796;2023-07-20T02:34:22;17.60;99.90
17148;DHT22;8689;47.364;8.796;2023-07-20T02:36:49;17.50;99.90
17148;DHT22;8689;47.364;8.796;2023-07-20T02:39:16;17.50;99.90
17148;DHT22;8689;47.364;8.796;2023-07-20T02:41:44;17.50;99.90
17148;DHT22;8689;47.364;8.796;2023-07-20T02:44:12;17.50;99.90
17148;DHT22;8689;47.364;8.796;2023-07-20T02:46:41;17.50;99.90
17148;DHT22;8689;47.364;8.796;2023-07-20T02:49:08;17.50;99.90
17148;DHT22;8689;47.364;8.796;2023-07-20T02:51:35;17.50;99.90
17148;DHT22;8689;47.364;8.796;2023-07-20T02:54:02;17.60;99.90
17148;DHT22;8689;47.364;8.796;2023-07-20T02:56:29;17.60;99.90
17148;DHT22;8689;47.364;8.796;2023-07-20T02:58:57;17.50;99.90
17148;DHT22;8689;47.364;8.796;2023-07-20T03:01:24;17.50;99.90
17148;DHT22;8689;47.364;8.796;2023-07-20T03:03:54;17.50;99.90
17148;DHT22;8689;47.364;8.796;2023-07-20T03:06:21;17.50;99.90
17148;DHT22;8689;47.364;8.796;2023-07-20T03:08:48;17.50;99.90
17148;DHT22;8689;47.364;8.796;2023-07-20T03:11:18;17.50;99.90
17148;DHT22;8689;47.364;8.796;2023-07-20T03:13:46;17.40;99.90
17148;DHT22;8689;47.364;8.796;2023-07-20T03:16:18;17.40;99.90
17148;DHT22;8689;47.364;8.796;2023-07-20T03:18:45;17.40;99.90
17148;DHT22;8689;47.364;8.796;2023-07-20T03:21:12;17.40;99.90
17148;DHT22;8689;47.364;8.796;2023-07-20T03:23:40;17.40;99.90
17148;DHT22;8689;47.364;8.796;2023-07-20T03:26:08;17.30;99.90
17148;DHT22;8689;47.364;8.796;2023-07-20T03:28:35;17.30;99.90
17148;DHT22;8689;47.364;8.796;2023-07-20T03:31:01;17.30;99.90
17148;DHT22;8689;47.364;8.796;2023-07-20T03:33:30;17.30;99.90
17148;DHT22;8689;47.364;8.796;2023-07-20T03:35:58;17.30;99.90
17148;DHT22;8689;47.364;8.796;2023-07-20T03:38:26;17.30;99.90
17148;DHT22;8689;47.364;8.796;2023-07-20T03:40:54;17.30;99.90
17148;DHT22;8689;47.364;8.796;2023-07-20T03:43:22;17.30;99.90
17148;DHT22;8689;47.364;8.796;2023-07-20T03:45:49;17.30;99.90
17148;DHT22;8689;47.364;8.796;2023-07-20T03:48:17;17.30;99.90
17148;DHT22;8689;47.364;8.796;2023-07-20T03:50:48;17.30;99.90
17148;DHT22;8689;47.364;8.796;2023-07-20T03:53:16;17.30;99.90
17148;DHT22;8689;47.364;8.796;2023-07-20T03:55:45;17.30;99.90
17148;DHT22;8689;47.364;8.796;2023-07-20T03:58:12;17.30;99.90
17148;DHT22;8689;47.364;8.796;2023-07-20T04:00:39;17.30;99.90
17148;DHT22;8689;47.364;8.796;2023-07-20T04:03:06;17.30;99.90
17148;DHT22;8689;47.364;8.796;2023-07-20T04:05:33;17.30;99.90
17148;DHT22;8689;47.364;8.796;2023-07-20T04:08:02;17.30;99.90
17148;DHT22;8689;47.364;8.796;2023-07-20T04:10:29;17.30;99.90
17148;DHT22;8689;47.364;8.796;2023-07-20T04:12:56;17.40;99.90
17148;DHT22;8689;47.364;8.796;2023-07-20T04:15:24;17.40;99.90
17148;DHT22;8689;47.364;8.796;2023-07-20T04:17:51;17.40;99.90
17148;DHT22;8689;47.364;8.796;2023-07-20T04:20:18;17.40;99.90
17148;DHT22;8689;47.364;8.796;2023-07-20T04:22:45;17.30;99.90
17148;DHT22;8689;47.364;8.796;2023-07-20T04:25:14;17.30;99.90
17148;DHT22;8689;47.364;8.796;2023-07-20T04:27:41;17.40;99.90
17148;DHT22;8689;47.364;8.796;2023-07-20T04:30:09;17.30;99.90
17148;DHT22;8689;47.364;8.796;2023-07-20T04:32:37;17.40;99.90
17148;DHT22;8689;47.364;8.796;2023-07-20T04:35:06;17.40;99.90
17148;DHT22;8689;47.364;8.796;2023-07-20T04:37:34;17.50;99.90
17148;DHT22;8689;47.364;8.796;2023-07-20T04:40:01;17.50;99.90
17148;DHT22;8689;47.364;8.796;2023-07-20T04:42:30;17.60;99.90
17148;DHT22;8689;47.364;8.796;2023-07-20T04:44:57;17.60;99.90
17148;DHT22;8689;47.364;8.796;2023-07-20T04:47:24;17.60;99.90
17148;DHT22;8689;47.364;8.796;2023-07-20T04:49:51;17.60;99.90
17148;DHT22;8689;47.364;8.796;2023-07-20T04:52:18;17.60;99.90
17148;DHT22;8689;47.364;8.796;2023-07-20T04:54:45;17.70;99.90
17148;DHT22;8689;47.364;8.796;2023-07-20T04:57:12;17.80;99.90
17148;DHT22;8689;47.364;8.796;2023-07-20T04:59:40;17.90;99.90
17148;DHT22;8689;47.364;8.796;2023-07-20T05:02:08;18.00;99.90
17148;DHT22;8689;47.364;8.796;2023-07-20T05:04:35;18.00;99.90
17148;DHT22;8689;47.364;8.796;2023-07-20T05:07:02;18.00;99.90
17148;DHT22;8689;47.364;8.796;2023-07-20T05:09:30;18.00;99.90
17148;DHT22;8689;47.364;8.796;2023-07-20T05:11:56;18.10;99.90
17148;DHT22;8689;47.364;8.796;2023-07-20T05:14:24;18.10;99.90
17148;DHT22;8689;47.364;8.796;2023-07-20T05:16:52;18.10;99.90
17148;DHT22;8689;47.364;8.796;2023-07-20T05:19:19;18.20;99.90
17148;DHT22;8689;47.364;8.796;2023-07-20T05:21:46;18.30;99.90
17148;DHT22;8689;47.364;8.796;2023-07-20T05:24:13;18.30;99.90
17148;DHT22;8689;47.364;8.796;2023-07-20T05:26:40;18.30;99.90
17148;DHT22;8689;47.364;8.796;2023-07-20T05:29:07;18.30;99.90
17148;DHT22;8689;47.364;8.796;2023-07-20T05:31:35;18.40;99.90
17148;DHT22;8689;47.364;8.796;2023-07-20T05:34:03;18.40;99.90
